Lake Tomahawk, Wisconsin
Current Conditions -  °F | °C
As of 10:15 PM on Monday 22 Dec 2014 (Local Time) from KARV Reporting Station
Light Snow Light Snow  
Wind Chill: 25°   Ceiling: 1100
Heat Index: 32°   Visibility: 3mi
Dew Point: 30°   Wind: 7mph
Humidity: 92%   Direction: 100°E
Pressure: 29.72"   Gusts: NA
Location:  45.81°N, 89.59°W
Report Text: KARV 230415Z AUTO 10006KT 070V140 3SM -SN OVC011 00/M01 A2972 RMK AO2 T10011013
Loading
Personal Weather Stations






























Interactive Weather Map New forecast layout! Learn more

10-Day Weather Forecast

Advertisements
Track Severe Weather on mobile